createdAt,value
2022-12-19T00:00:36.443Z,79.51
2022-12-19T00:03:04.823Z,78.06
2022-12-19T00:05:37.040Z,79.49
2022-12-19T00:08:17.612Z,77.51
2022-12-19T00:10:55.675Z,77.36
2022-12-19T00:13:24.447Z,75.91
2022-12-19T00:15:52.544Z,76.07
2022-12-19T00:18:20.645Z,75.16
2022-12-19T00:20:56.909Z,75.66
2022-12-19T00:23:24.935Z,76.17
2022-12-19T00:25:53.325Z,74.43
2022-12-19T00:28:21.910Z,76.31
2022-12-19T00:30:49.805Z,77.01
2022-12-19T00:33:19.956Z,77.19
2022-12-19T00:35:47.888Z,76.58
2022-12-19T00:38:15.768Z,75.33
2022-12-19T00:40:44.025Z,76.07
2022-12-19T00:43:11.881Z,78.29
2022-12-19T00:45:39.803Z,77.93
2022-12-19T00:48:08.111Z,76.71
2022-12-19T00:50:37.692Z,77.34
2022-12-19T00:53:05.561Z,78.65
2022-12-19T00:55:34.660Z,77.05
2022-12-19T00:58:02.490Z,76.83
2022-12-19T01:00:30.349Z,78.41
2022-12-19T01:02:58.916Z,77.85
2022-12-19T01:05:26.891Z,79.14
2022-12-19T01:07:55.102Z,77.06
2022-12-19T01:10:23.374Z,77.95
2022-12-19T01:12:51.277Z,78.10
2022-12-19T01:15:20.847Z,79.58
2022-12-19T01:17:49.653Z,77.57
2022-12-19T01:20:21.625Z,78.23
2022-12-19T01:23:00.084Z,78.24
2022-12-19T01:25:28.525Z,79.15
2022-12-19T01:27:56.990Z,79.60
2022-12-19T01:30:26.033Z,78.52
2022-12-19T01:32:54.019Z,78.77
2022-12-19T01:35:22.398Z,78.73
2022-12-19T01:37:51.961Z,78.45
2022-12-19T01:40:26.743Z,80.11
2022-12-19T01:42:54.994Z,79.98
2022-12-19T01:45:34.997Z,82.28
2022-12-19T01:48:23.168Z,82.34
2022-12-19T01:51:03.492Z,81.87
2022-12-19T01:53:49.174Z,82.13
2022-12-19T01:56:24.503Z,81.20
2022-12-19T01:59:05.627Z,82.42
2022-12-19T02:01:39.627Z,82.62
2022-12-19T02:04:24.658Z,82.84
2022-12-19T02:06:56.146Z,82.37
2022-12-19T02:09:25.726Z,81.89
2022-12-19T02:11:54.010Z,80.30
2022-12-19T02:14:22.337Z,83.48
2022-12-19T02:17:19.243Z,81.29
2022-12-19T02:19:56.396Z,82.24
2022-12-19T02:22:30.595Z,80.56
2022-12-19T02:25:04.608Z,82.32
2022-12-19T02:28:01.033Z,82.35
2022-12-19T02:30:47.969Z,82.14
2022-12-19T02:33:38.199Z,85.42
2022-12-19T02:36:18.321Z,87.46
2022-12-19T02:38:59.227Z,88.22
2022-12-19T02:41:45.341Z,87.87
2022-12-19T02:44:22.423Z,86.99
2022-12-19T02:46:51.127Z,86.77
2022-12-19T02:49:24.939Z,85.32
2022-12-19T02:52:12.255Z,88.11
2022-12-19T02:54:42.326Z,84.95
2022-12-19T02:57:28.477Z,85.72
2022-12-19T03:00:06.019Z,84.90
2022-12-19T03:03:08.654Z,87.34
2022-12-19T03:06:12.385Z,85.63
2022-12-19T03:08:58.453Z,85.85
2022-12-19T03:11:32.180Z,83.26
2022-12-19T03:14:03.947Z,84.68
2022-12-19T03:16:35.690Z,85.60
2022-12-19T03:19:04.752Z,84.78
2022-12-19T03:21:37.881Z,84.04
2022-12-19T03:24:07.814Z,83.41
2022-12-19T03:26:42.681Z,84.25
2022-12-19T03:29:13.549Z,83.20
2022-12-19T03:31:42.677Z,84.04
2022-12-19T03:34:38.843Z,83.18
2022-12-19T03:37:10.870Z,82.44
2022-12-19T03:39:41.598Z,81.32
2022-12-19T03:42:29.747Z,82.63
2022-12-19T03:45:00.965Z,82.99
2022-12-19T03:47:38.644Z,82.63
2022-12-19T03:50:07.625Z,84.26
2022-12-19T03:52:38.027Z,83.57
2022-12-19T03:55:18.668Z,83.69
2022-12-19T03:57:51.279Z,83.89
2022-12-19T04:00:19.545Z,82.73
2022-12-19T04:02:52.905Z,82.81
2022-12-19T04:05:25.873Z,84.14
2022-12-19T04:07:57.107Z,83.02
2022-12-19T04:10:26.689Z,82.54
2022-12-19T04:12:59.777Z,84.55
2022-12-19T04:15:51.933Z,83.12
2022-12-19T04:18:20.729Z,82.29
2022-12-19T04:20:59.800Z,83.31
2022-12-19T04:23:31.652Z,84.14
2022-12-19T04:26:03.172Z,83.07
2022-12-19T04:28:59.254Z,82.55
2022-12-19T04:31:27.258Z,82.42
2022-12-19T04:33:55.595Z,82.87
2022-12-19T04:36:25.061Z,82.05
2022-12-19T04:38:53.019Z,81.68
2022-12-19T04:41:21.225Z,82.38
2022-12-19T04:43:49.100Z,82.54
2022-12-19T04:46:17.067Z,82.27
2022-12-19T04:48:45.406Z,81.63
2022-12-19T04:51:13.306Z,81.74
2022-12-19T04:53:41.439Z,82.69
2022-12-19T04:56:10.274Z,81.68
2022-12-19T04:58:38.116Z,81.52
2022-12-19T05:01:08.168Z,81.95
2022-12-19T05:03:37.000Z,82.17
2022-12-19T05:06:07.366Z,82.53
2022-12-19T05:08:36.674Z,82.96
2022-12-19T05:11:06.916Z,82.40
2022-12-19T05:13:35.074Z,82.51
2022-12-19T05:16:06.488Z,83.67
2022-12-19T05:18:35.908Z,82.74
2022-12-19T05:21:05.029Z,82.61
2022-12-19T05:23:32.933Z,82.43
2022-12-19T05:26:02.220Z,82.21
2022-12-19T05:28:31.198Z,81.04
2022-12-19T05:31:06.525Z,80.64
2022-12-19T05:33:35.306Z,81.17
2022-12-19T05:36:03.483Z,81.33
2022-12-19T05:38:31.706Z,82.44
2022-12-19T05:41:00.110Z,80.71
2022-12-19T05:43:28.354Z,81.90
2022-12-19T05:45:56.210Z,82.18
2022-12-19T05:48:24.472Z,81.85
2022-12-19T05:50:52.322Z,82.83
2022-12-19T05:53:24.631Z,82.03
2022-12-19T05:56:11.668Z,81.87
2022-12-19T05:58:40.573Z,82.74
2022-12-19T06:01:19.254Z,82.17
2022-12-19T06:03:47.939Z,82.71
2022-12-19T06:06:19.044Z,81.90
2022-12-19T06:08:47.320Z,81.79
2022-12-19T06:11:15.378Z,82.83
2022-12-19T06:13:43.261Z,82.59
2022-12-19T06:16:14.059Z,81.77
2022-12-19T06:18:44.766Z,81.13
2022-12-19T06:21:15.668Z,82.54
2022-12-19T06:23:44.374Z,84.18
2022-12-19T06:26:19.401Z,82.02
2022-12-19T06:28:49.656Z,83.41
2022-12-19T06:31:18.185Z,82.79
2022-12-19T06:33:46.472Z,83.86
2022-12-19T06:36:16.771Z,84.50
2022-12-19T06:38:44.835Z,82.62
2022-12-19T06:41:32.030Z,84.46
2022-12-19T06:44:01.230Z,85.35
2022-12-19T06:46:29.355Z,83.79
2022-12-19T06:48:57.344Z,86.04
2022-12-19T06:51:25.897Z,85.82
2022-12-19T06:53:54.266Z,85.66
2022-12-19T06:56:22.371Z,86.91
2022-12-19T06:58:51.331Z,86.35
2022-12-19T07:01:21.252Z,87.20
2022-12-19T07:03:49.518Z,86.95
2022-12-19T07:06:17.771Z,86.50
2022-12-19T07:08:45.752Z,85.11
2022-12-19T07:11:13.713Z,84.97
2022-12-19T07:13:41.966Z,84.40
2022-12-19T07:16:09.948Z,84.92
2022-12-19T07:18:39.838Z,84.06
2022-12-19T07:21:09.061Z,85.20
2022-12-19T07:23:37.354Z,85.86
2022-12-19T07:26:05.651Z,86.67
2022-12-19T07:28:34.130Z,85.85
2022-12-19T07:31:02.044Z,85.61
2022-12-19T07:33:29.956Z,84.79
2022-12-19T07:35:58.211Z,85.18
2022-12-19T07:38:26.073Z,85.75
2022-12-19T07:40:54.023Z,86.78
2022-12-19T07:43:22.429Z,86.72
2022-12-19T07:45:55.364Z,86.94
2022-12-19T07:48:24.212Z,85.00
2022-12-19T07:50:52.267Z,85.23
2022-12-19T07:53:20.105Z,86.08
2022-12-19T07:55:52.300Z,86.80
2022-12-19T07:58:20.811Z,85.93
2022-12-19T08:00:56.952Z,85.30
2022-12-19T08:03:25.747Z,84.16
2022-12-19T08:05:53.776Z,81.69
2022-12-19T08:08:21.767Z,82.62
2022-12-19T08:10:50.114Z,82.12
2022-12-19T08:13:18.095Z,84.26
2022-12-19T08:15:46.294Z,83.54
2022-12-19T08:18:14.786Z,82.25
2022-12-19T08:20:45.827Z,81.12
2022-12-19T08:23:13.890Z,80.44
2022-12-19T08:25:42.361Z,79.77
2022-12-19T08:28:10.384Z,81.12
2022-12-19T08:30:40.204Z,79.57
2022-12-19T08:33:08.659Z,78.72
2022-12-19T08:35:37.414Z,78.67
2022-12-19T08:38:05.619Z,80.28
2022-12-19T08:40:34.297Z,77.16
2022-12-19T08:43:02.360Z,73.51
2022-12-19T08:45:30.813Z,73.34
2022-12-19T08:47:59.054Z,70.79
2022-12-19T08:50:26.985Z,69.97
2022-12-19T08:52:55.016Z,65.41
2022-12-19T08:55:24.978Z,62.39
2022-12-19T08:57:55.213Z,60.42
2022-12-19T09:00:23.686Z,60.08
2022-12-19T09:02:52.756Z,58.69
2022-12-19T09:05:58.414Z,59.48
2022-12-19T09:08:09.208Z,59.77
2022-12-19T09:10:38.111Z,59.47
2022-12-19T09:13:06.339Z,59.14
2022-12-19T09:15:34.679Z,58.12
2022-12-19T09:18:04.352Z,58.45
2022-12-19T09:20:32.333Z,57.77
2022-12-19T09:23:00.719Z,56.87
2022-12-19T09:25:28.623Z,58.24
2022-12-19T09:28:26.273Z,59.27
2022-12-19T09:30:45.240Z,59.57
2022-12-19T09:33:13.332Z,60.25
2022-12-19T09:35:50.305Z,60.47
2022-12-19T09:38:21.522Z,61.77
2022-12-19T09:41:29.988Z,61.71
2022-12-19T09:43:58.422Z,62.10
2022-12-19T09:46:37.810Z,59.10
2022-12-19T09:49:17.236Z,58.98
2022-12-19T09:52:02.605Z,55.44
2022-12-19T09:55:01.790Z,53.69
2022-12-19T09:57:52.269Z,48.95
2022-12-19T10:00:22.625Z,50.15
2022-12-19T10:02:58.460Z,51.92
2022-12-19T10:07:06.979Z,54.67
2022-12-19T10:08:46.765Z,54.64
2022-12-19T10:12:40.261Z,51.39
2022-12-19T10:15:09.353Z,50.09
2022-12-19T10:17:58.647Z,47.75
2022-12-19T10:20:38.877Z,48.50
2022-12-19T10:23:32.044Z,46.25
2022-12-19T10:26:29.786Z,46.40
2022-12-19T10:29:17.682Z,44.78
2022-12-19T10:31:55.473Z,45.17
2022-12-19T10:34:34.309Z,44.69
2022-12-19T10:37:39.822Z,44.75
2022-12-19T10:40:28.317Z,44.96
2022-12-19T10:43:30.399Z,45.08
2022-12-19T10:46:08.046Z,47.02
2022-12-19T10:48:36.368Z,46.86
2022-12-19T10:51:06.761Z,44.68
2022-12-19T10:53:35.184Z,44.57
2022-12-19T10:56:13.505Z,44.54
2022-12-19T10:58:44.530Z,43.81
2022-12-19T11:01:17.302Z,43.84
2022-12-19T11:03:50.228Z,43.16
2022-12-19T11:06:42.864Z,43.79
2022-12-19T11:09:42.588Z,44.15
2022-12-19T11:15:44.018Z,44.99
2022-12-19T11:19:26.795Z,45.13
2022-12-19T11:27:10.532Z,47.81
2022-12-19T11:29:33.803Z,51.05
2022-12-19T11:29:35.302Z,50.89
2022-12-19T11:29:44.348Z,46.83
2022-12-19T11:32:44.490Z,51.19
2022-12-19T11:35:16.806Z,51.71
2022-12-19T11:38:06.246Z,50.21
2022-12-19T11:40:49.204Z,51.04
2022-12-19T11:43:46.219Z,51.00
2022-12-19T11:46:50.580Z,50.21
2022-12-19T11:49:28.208Z,53.53
2022-12-19T11:53:02.974Z,54.27
2022-12-19T11:55:52.280Z,54.07
2022-12-19T11:58:23.286Z,50.93
2022-12-19T12:01:13.213Z,50.48
2022-12-19T12:04:04.174Z,49.98
2022-12-19T12:06:34.961Z,51.84
2022-12-19T12:13:13.576Z,50.31
2022-12-19T12:20:40.107Z,48.99
2022-12-19T12:27:48.181Z,48.31
2022-12-19T12:31:16.208Z,53.16
2022-12-19T12:31:23.448Z,50.59
2022-12-19T12:31:26.086Z,49.06
2022-12-19T12:31:44.836Z,53.12
2022-12-19T12:31:58.103Z,52.69
2022-12-19T12:35:51.082Z,53.27
2022-12-19T12:40:09.323Z,56.95
2022-12-19T12:42:57.577Z,57.73
2022-12-19T12:45:41.095Z,59.55
2022-12-19T12:48:30.464Z,59.77
2022-12-19T12:51:00.876Z,59.74
2022-12-19T12:53:33.665Z,60.14
2022-12-19T12:56:05.700Z,60.73
2022-12-19T12:58:45.645Z,60.45
2022-12-19T13:01:29.015Z,61.59
2022-12-19T13:03:59.749Z,61.93
2022-12-19T13:06:33.671Z,60.88
2022-12-19T13:09:20.964Z,61.25
2022-12-19T13:12:11.808Z,60.83
2022-12-19T13:14:39.864Z,62.66
2022-12-19T13:17:32.062Z,63.10
2022-12-19T13:20:05.698Z,63.54
2022-12-19T13:22:33.934Z,64.02
2022-12-19T13:25:02.043Z,63.49
2022-12-19T13:27:38.224Z,63.91
2022-12-19T13:30:14.411Z,64.92
2022-12-19T13:32:44.200Z,65.10
2022-12-19T13:36:12.110Z,63.95
2022-12-19T13:39:54.017Z,64.69
2022-12-19T13:41:48.710Z,65.13
2022-12-19T13:44:21.612Z,65.51
2022-12-19T13:46:50.252Z,65.68
2022-12-19T13:49:33.261Z,66.29
2022-12-19T13:52:04.771Z,66.48
2022-12-19T13:54:46.946Z,65.71
2022-12-19T13:57:30.288Z,66.66
2022-12-19T14:00:01.802Z,66.45
2022-12-19T14:02:44.057Z,66.52
2022-12-19T14:06:14.540Z,67.68
2022-12-19T14:08:22.412Z,67.52
2022-12-19T14:11:37.764Z,67.16
2022-12-19T14:14:17.792Z,67.30
2022-12-19T14:16:52.206Z,66.58
2022-12-19T14:19:31.091Z,66.48
2022-12-19T14:22:25.545Z,66.39
2022-12-19T14:25:07.009Z,69.30
2022-12-19T14:28:24.034Z,68.91
2022-12-19T14:30:52.788Z,68.15
2022-12-19T14:33:44.185Z,68.27
2022-12-19T14:36:16.498Z,67.36
2022-12-19T14:39:27.054Z,67.59
2022-12-19T14:42:03.579Z,67.27
2022-12-19T14:52:35.005Z,69.39
2022-12-19T14:54:02.055Z,69.53
2022-12-19T14:54:22.388Z,69.68
2022-12-19T14:54:32.219Z,69.23
2022-12-19T14:56:45.100Z,69.33
2022-12-19T14:59:29.077Z,70.34
2022-12-19T15:02:06.882Z,71.15
2022-12-19T15:04:54.542Z,72.39
2022-12-19T15:07:26.207Z,72.86
2022-12-19T15:11:09.293Z,72.40
2022-12-19T15:14:48.130Z,71.69
2022-12-19T15:16:29.238Z,70.19
2022-12-19T15:19:01.308Z,71.65
2022-12-19T15:21:30.728Z,71.22
2022-12-19T15:23:59.082Z,71.85
2022-12-19T15:26:29.917Z,70.36
2022-12-19T15:28:58.731Z,73.31
2022-12-19T15:31:38.898Z,72.55
2022-12-19T15:34:37.248Z,73.99
2022-12-19T15:37:14.427Z,74.25
2022-12-19T15:39:43.856Z,72.72
2022-12-19T15:42:21.637Z,72.44
2022-12-19T15:44:50.294Z,72.05
2022-12-19T15:47:30.628Z,72.08
2022-12-19T15:50:04.476Z,72.20
2022-12-19T15:52:32.684Z,72.59
2022-12-19T15:55:01.099Z,73.52
2022-12-19T15:57:34.899Z,74.62
2022-12-19T16:00:08.755Z,74.40
2022-12-19T16:03:13.233Z,73.38
2022-12-19T16:05:26.819Z,74.12
2022-12-19T16:07:57.473Z,74.08
2022-12-19T16:10:26.057Z,73.28
2022-12-19T16:12:56.214Z,74.36
2022-12-19T16:15:25.768Z,73.67
2022-12-19T16:17:54.956Z,73.90
2022-12-19T16:20:27.108Z,74.71
2022-12-19T16:22:57.500Z,73.75
2022-12-19T16:25:34.088Z,74.55
2022-12-19T16:28:02.433Z,75.13
2022-12-19T16:30:32.983Z,75.40
2022-12-19T16:33:01.449Z,76.82
2022-12-19T16:36:02.433Z,74.79
2022-12-19T16:38:19.321Z,75.03
2022-12-19T16:40:49.612Z,75.05
2022-12-19T16:43:31.012Z,76.21
2022-12-19T16:46:01.393Z,75.96
2022-12-19T16:48:30.410Z,74.60
2022-12-19T16:50:59.774Z,74.16
2022-12-19T16:53:28.411Z,73.82
2022-12-19T16:55:57.022Z,74.02
2022-12-19T16:58:27.049Z,73.81
2022-12-19T17:00:56.106Z,74.11
2022-12-19T17:03:36.315Z,73.34
2022-12-19T17:06:04.982Z,73.57
2022-12-19T17:08:32.914Z,74.01
2022-12-19T17:11:00.927Z,74.23
2022-12-19T17:13:29.585Z,73.88
2022-12-19T17:15:58.642Z,74.09
2022-12-19T17:18:33.759Z,74.27
2022-12-19T17:21:02.338Z,73.12
2022-12-19T17:23:32.825Z,72.93
2022-12-19T17:26:01.473Z,75.15
2022-12-19T17:28:30.040Z,74.53
2022-12-19T17:31:00.376Z,74.17
2022-12-19T17:33:33.825Z,74.83
2022-12-19T17:36:02.600Z,73.84
2022-12-19T17:38:31.072Z,72.95
2022-12-19T17:40:59.734Z,72.73
2022-12-19T17:43:27.707Z,72.67
2022-12-19T17:45:56.252Z,72.37
2022-12-19T17:48:29.991Z,73.66
2022-12-19T17:50:58.943Z,74.64
2022-12-19T17:53:27.081Z,73.80
2022-12-19T17:55:54.991Z,73.12
2022-12-19T17:58:23.435Z,71.89
2022-12-19T18:00:51.807Z,72.96
2022-12-19T18:03:23.353Z,73.65
2022-12-19T18:05:55.428Z,73.03
2022-12-19T18:08:33.391Z,72.38
2022-12-19T18:11:03.289Z,73.09
2022-12-19T18:13:32.553Z,74.65
2022-12-19T18:16:02.082Z,73.53
2022-12-19T18:18:35.414Z,73.47
2022-12-19T18:21:04.570Z,72.91
2022-12-19T18:23:33.328Z,74.80
2022-12-19T18:26:02.643Z,74.27
2022-12-19T18:28:31.205Z,73.37
2022-12-19T18:31:02.721Z,74.56
2022-12-19T18:33:37.517Z,74.01
2022-12-19T18:36:07.004Z,73.97
2022-12-19T18:38:35.521Z,74.47
2022-12-19T18:41:03.658Z,74.32
2022-12-19T18:43:32.469Z,74.48
2022-12-19T18:46:00.917Z,74.79
2022-12-19T18:48:34.483Z,74.85
2022-12-19T18:51:03.796Z,74.68
2022-12-19T18:53:35.515Z,75.01
2022-12-19T18:56:06.235Z,74.03
2022-12-19T18:58:34.631Z,75.21
2022-12-19T19:01:04.163Z,74.33
2022-12-19T19:03:39.936Z,74.93
2022-12-19T19:06:37.894Z,76.22
2022-12-19T19:09:16.124Z,74.70
2022-12-19T19:11:45.937Z,75.90
2022-12-19T19:14:14.882Z,76.07
2022-12-19T19:16:43.035Z,74.61
2022-12-19T19:19:12.648Z,76.02
2022-12-19T19:21:41.948Z,75.27
2022-12-19T19:24:16.125Z,74.78
2022-12-19T19:26:44.807Z,75.38
2022-12-19T19:29:15.571Z,75.77
2022-12-19T19:31:46.294Z,76.55
2022-12-19T19:34:21.857Z,75.01
2022-12-19T19:36:53.848Z,75.17
2022-12-19T19:39:23.125Z,74.63
2022-12-19T19:41:51.065Z,74.45
2022-12-19T19:44:18.955Z,75.62
2022-12-19T19:46:47.356Z,75.35
2022-12-19T19:49:16.002Z,76.80
2022-12-19T19:51:43.898Z,75.19
2022-12-19T19:54:12.330Z,76.05
2022-12-19T19:56:40.486Z,75.15
2022-12-19T19:59:08.691Z,76.12
2022-12-19T20:01:37.090Z,75.33
2022-12-19T20:04:05.786Z,77.39
2022-12-19T20:06:33.756Z,75.51
2022-12-19T20:09:01.657Z,76.47
2022-12-19T20:11:30.762Z,75.43
2022-12-19T20:13:58.552Z,74.47
2022-12-19T20:16:26.700Z,75.86
2022-12-19T20:18:55.113Z,75.71
2022-12-19T20:21:24.796Z,74.86
2022-12-19T20:23:52.868Z,75.09
2022-12-19T20:26:21.295Z,75.47
2022-12-19T20:28:50.803Z,76.14
2022-12-19T20:31:20.773Z,76.42
2022-12-19T20:33:50.681Z,76.95
2022-12-19T20:36:18.980Z,79.68
2022-12-19T20:38:47.510Z,77.72
2022-12-19T20:41:16.795Z,78.63
2022-12-19T20:43:45.345Z,77.52
2022-12-19T20:46:16.805Z,77.69
2022-12-19T20:48:46.206Z,77.45
2022-12-19T20:51:15.186Z,78.32
2022-12-19T20:53:43.993Z,76.72
2022-12-19T20:56:17.378Z,75.66
2022-12-19T20:58:46.428Z,76.26
2022-12-19T21:01:20.472Z,76.80
2022-12-19T21:03:49.363Z,75.39
2022-12-19T21:06:19.632Z,75.40
2022-12-19T21:08:47.896Z,76.00
2022-12-19T21:11:16.300Z,76.16
2022-12-19T21:13:45.038Z,76.18
2022-12-19T21:16:15.686Z,76.55
2022-12-19T21:18:45.063Z,77.05
2022-12-19T21:21:21.353Z,76.24
2022-12-19T21:23:50.483Z,75.94
2022-12-19T21:26:19.379Z,75.53
2022-12-19T21:28:47.440Z,76.37
2022-12-19T21:31:19.002Z,76.67
2022-12-19T21:33:47.966Z,76.29
2022-12-19T21:36:21.021Z,77.62
2022-12-19T21:38:51.333Z,77.41
2022-12-19T21:41:19.637Z,76.98
2022-12-19T21:43:49.508Z,77.03
2022-12-19T21:46:18.331Z,77.16
2022-12-19T21:48:48.376Z,76.97
2022-12-19T21:51:18.847Z,78.09
2022-12-19T21:53:47.956Z,76.66
2022-12-19T21:56:18.609Z,76.45
2022-12-19T21:58:47.094Z,76.97
2022-12-19T22:01:15.868Z,79.28
2022-12-19T22:03:44.578Z,78.52
2022-12-19T22:06:21.002Z,77.48
2022-12-19T22:08:53.952Z,78.67
2022-12-19T22:11:22.090Z,78.55
2022-12-19T22:13:50.726Z,76.84
2022-12-19T22:16:19.047Z,77.66
2022-12-19T22:18:47.340Z,77.53
2022-12-19T22:21:15.877Z,77.38
2022-12-19T22:23:44.180Z,77.70
2022-12-19T22:26:17.436Z,78.18
2022-12-19T22:28:47.837Z,78.11
2022-12-19T22:31:25.286Z,77.36
2022-12-19T22:34:01.516Z,78.62
2022-12-19T22:36:31.605Z,78.64
2022-12-19T22:39:01.422Z,78.80
2022-12-19T22:41:29.753Z,78.49
2022-12-19T22:43:57.731Z,77.13
2022-12-19T22:46:32.114Z,79.43
2022-12-19T22:49:02.667Z,81.13
2022-12-19T22:51:32.169Z,79.75
2022-12-19T22:54:00.497Z,78.66
2022-12-19T22:56:30.269Z,78.85
2022-12-19T22:59:04.888Z,77.79
2022-12-19T23:01:37.229Z,78.40
2022-12-19T23:04:07.075Z,78.71
2022-12-19T23:06:36.489Z,78.76
2022-12-19T23:09:06.608Z,79.48
2022-12-19T23:11:37.617Z,81.25
2022-12-19T23:14:06.988Z,80.15
2022-12-19T23:16:35.889Z,78.91
2022-12-19T23:19:05.438Z,77.74
2022-12-19T23:21:33.398Z,77.11
2022-12-19T23:24:01.725Z,79.58
2022-12-19T23:26:33.352Z,78.46
2022-12-19T23:29:10.010Z,77.95
2022-12-19T23:31:40.538Z,77.42
2022-12-19T23:34:10.781Z,77.34
2022-12-19T23:37:09.545Z,78.12
2022-12-19T23:39:27.197Z,77.14
2022-12-19T23:41:55.040Z,76.93
2022-12-19T23:44:23.096Z,77.60
2022-12-19T23:46:51.476Z,78.09
2022-12-19T23:49:19.372Z,79.01
2022-12-19T23:51:47.222Z,79.30
2022-12-19T23:54:15.643Z,79.25
2022-12-19T23:56:43.512Z,78.33
2022-12-19T23:59:11.333Z,79.11
